Utah County RPA :: 2MCCAMMON

liberation: 2021-09-04  07:35     latitude: 42.659683     longitude: -112.202217 94 birds
# LOFT PRING MILES ARRIVAL SPEED ToWin
1 Craig Allred AU21-AFPL-0045 178.13 2021-09-04 11:14:06.676 1430.817 00:00:00
2 Craig Allred AU21-AFPL-176 178.13 2021-09-04 11:14:08.946 1430.570 00:00:02
3 Peery Loft AU21-UCA-0111 182.087 2021-09-04 11:19:34.063 1427.068 00:00:35
4 Peery Loft AU21-NEBO-0306 182.087 2021-09-04 11:19:34.465 1427.025 00:00:36
5 Peery Loft AU21-UCA-0139 182.087 2021-09-04 11:19:36.693 1426.790 00:00:38
6 Craig Allred AU21-AFPL-0026 178.13 2021-09-04 11:16:20.888 1416.357 00:02:14
7 Craig Allred AU21-AFPL-181 178.13 2021-09-04 11:16:32.070 1415.166 00:02:25
8 Craig Allred AU21-AFPL-0019 178.13 2021-09-04 11:16:34.225 1414.936 00:02:28
9 Craig Allred AU21-AFPL-0054 178.13 2021-09-04 11:16:36.268 1414.719 00:02:30
10 Ross Johnson AU21-UCA-68 176.788 2021-09-04 11:15:03.772 1413.896 00:02:36
11 Peery Loft AU21-UCA-0149 182.087 2021-09-04 11:26:50.046 1382.339 00:07:51
12 Peery Loft AU21-UCA-0143 182.087 2021-09-04 11:29:24.074 1367.200 00:10:25
13 Craig Allred AU21-AFPL-153 178.13 2021-09-04 11:26:17.125 1355.503 00:12:10
14 Craig Allred AU21-AFPL-194 178.13 2021-09-04 11:26:35.200 1353.740 00:12:29
15 Craig Allred AU21-AFPL-152 178.13 2021-09-04 11:26:41.657 1353.111 00:12:35
16 Craig Allred AU21-AFPL-170 178.13 2021-09-04 11:27:40.488 1347.409 00:13:34
17 Craig Allred AU21-AFPL-178 178.13 2021-09-04 11:27:44.209 1347.050 00:13:38
18 Peery Loft AU21-UCA-0102 182.087 2021-09-04 11:33:55.322 1341.331 00:14:57
19 Peery Loft AU21-UCA-0101 182.087 2021-09-04 11:34:18.402 1339.174 00:15:20
20 Craig Allred AU21-AFPL-159 178.13 2021-09-04 11:30:12.791 1332.868 00:16:06
21 Craig Allred AU21-AFPL-0056 178.13 2021-09-04 11:30:16.068 1332.558 00:16:09
22 Craig Allred AU21-AFPL-0017 178.13 2021-09-04 11:30:19.184 1332.264 00:16:13
23 Craig Allred AU21-AFPL-11 178.13 2021-09-04 11:30:20.336 1332.155 00:16:14
24 Craig Allred AU21-AFPL-0034 178.13 2021-09-04 11:31:24.036 1326.173 00:17:17
25 Sherwood Loft AU21-UVI-1196 185.761 2021-09-04 11:42:29.989 1320.967 00:19:00
26 Peery Loft AU21-UCA-0110 182.087 2021-09-04 11:37:39.933 1320.638 00:18:41
27 Ross Johnson AU21-UCA-13 176.788 2021-09-04 11:30:47.959 1319.537 00:18:20
28 Peery Loft AU21-UCA-0150 182.087 2021-09-04 11:38:06.882 1318.198 00:19:08
29 Peery Loft AU21-UCA-0104 182.087 2021-09-04 11:38:16.133 1317.363 00:19:17
30 Sherwood Loft AU21-UVI-0630 185.761 2021-09-04 11:43:20.441 1316.494 00:19:51
31 Peery Loft AU21-NEBO-0308 182.087 2021-09-04 11:40:37.810 1304.699 00:21:39
32 Peery Loft AU21-UCA-0119 182.087 2021-09-04 11:41:59.828 1297.478 00:23:01
33 Peery Loft AU21-NEBO-0316 182.087 2021-09-04 11:42:00.758 1297.397 00:23:02
34 Peery Loft AU21-NEBO-0320 182.087 2021-09-04 11:42:05.221 1297.006 00:23:06
35 Peery Loft AU21-UCA-0124 182.087 2021-09-04 11:42:05.594 1296.974 00:23:07
36 Craig Allred AU21-AFPL-0027 178.13 2021-09-04 11:38:39.890 1286.636 00:24:33
37 Craig Allred AU21-AFPL-0021 178.13 2021-09-04 11:38:46.352 1286.068 00:24:40
38 Peery Loft AU21-UCA-0120 182.087 2021-09-04 11:50:33.213 1254.036 00:31:34
39 Hayden Johnson AU21-UCA-207 185.625 2021-09-04 11:56:42.619 1248.324 00:33:23
40 Ross Johnson AU21-UCA-38 176.788 2021-09-04 11:44:25.762 1247.431 00:31:58
41 Hayden Johnson AU21-UCA-228 185.625 2021-09-04 11:57:52.692 1242.778 00:34:33
42 Ross Johnson AU21-UCA-6 176.788 2021-09-04 11:46:37.951 1236.510 00:34:10
43 Craig Allred AU21-AFPL-0051 178.13 2021-09-04 11:48:40.832 1235.838 00:34:34
44 Ross Johnson AU21-UCA-2 176.788 2021-09-04 11:50:08.958 1219.467 00:37:41
45 Ross Johnson AU21-UCA-22 176.788 2021-09-04 11:55:58.513 1192.244 00:43:31
46 Craig Allred AU21-AFPL-167 178.13 2021-09-04 11:58:53.174 1188.042 00:44:47
47 Sherwood Loft AU21-UCA-0531 185.761 2021-09-04 12:12:56.954 1176.255 00:49:27
48 Ross Johnson AU21-UCA-26 176.788 2021-09-04 12:01:34.976 1167.164 00:49:07
49 Sherwood Loft AU21-UVI-0680 185.761 2021-09-04 12:30:25.132 1106.697 01:06:55
50 Peery Loft AU21-UCA-0115 182.087 2021-09-04 12:54:17.427 1003.705 01:35:19
51 Peery Loft AU21-UCA-0112 182.087 2021-09-04 12:58:44.072 989.927 01:39:45
52 Ross Johnson AU21-UCA-33 176.788 2021-09-04 12:57:43.634 964.115 01:45:16
53 Ross Johnson AU21-UCA-31 176.788 2021-09-04 13:05:57.753 940.125 01:53:30
54 Ross Johnson AU21-UCA-47 176.788 2021-09-04 13:42:12.973 847.310 02:29:45
55 Craig Allred AU21-AFPL-0006 178.13 2021-09-04 14:40:40.534 736.495 03:26:34
56 Sherwood Loft AU21-UCA-0541 185.761 2021-09-04 15:08:43.144 720.576 03:45:13
57 Dry Creek Lofts AU21-UCA-0819 183.792 2021-09-04 15:04:07.538 720.232 03:43:03
58 Dry Creek Lofts AU21-NEBO-0020 183.792 2021-09-04 15:56:32.490 644.961 04:35:28
59 Dry Creek Lofts AU21-NEBO-0001 183.792 2021-09-04 19:43:27.018 444.059 08:22:22
60 Ross Johnson AU21-UCA-59 176.788 2021-09-04 19:21:31.071 440.394 08:09:03
Craig Allred AU21-AFPL-0018 0 0000-00-00 00:00:00.000 0.000 00:00:00
Craig Allred AU21-AFPL-0041 0 0000-00-00 00:00:00.000 0.000 00:00:00
Craig Allred AU21-AFPL-0044 0 0000-00-00 00:00:00.000 0.000 00:00:00
Craig Allred AU21-GHC-6847 0 0000-00-00 00:00:00.000 0.000 00:00:00
Dry Creek Lofts AU21-NEBO-0007 0 0000-00-00 00:00:00.000 0.000 00:00:00
Dry Creek Lofts AU21-NEBO-0009 0 0000-00-00 00:00:00.000 0.000 00:00:00
Dry Creek Lofts AU21-NEBO-0010 0 0000-00-00 00:00:00.000 0.000 00:00:00
Dry Creek Lofts AU21-NEBO-0011 0 0000-00-00 00:00:00.000 0.000 00:00:00
Dry Creek Lofts AU21-NEBO-0015 0 0000-00-00 00:00:00.000 0.000 00:00:00
Dry Creek Lofts AU21-NEBO-0016 0 0000-00-00 00:00:00.000 0.000 00:00:00
Dry Creek Lofts AU21-NEBO-0028 0 0000-00-00 00:00:00.000 0.000 00:00:00
Dry Creek Lofts AU21-NEBO-4 0 0000-00-00 00:00:00.000 0.000 00:00:00
Dry Creek Lofts AU21-UCA-0407 0 0000-00-00 00:00:00.000 0.000 00:00:00
Dry Creek Lofts AU21-UCA-0409 0 0000-00-00 00:00:00.000 0.000 00:00:00
Dry Creek Lofts AU21-UCA-0410 0 0000-00-00 00:00:00.000 0.000 00:00:00
Dry Creek Lofts AU21-UCA-0416 0 0000-00-00 00:00:00.000 0.000 00:00:00
Dry Creek Lofts AU21-UCA-0418 0 0000-00-00 00:00:00.000 0.000 00:00:00
Dry Creek Lofts AU21-UCA-0449 0 0000-00-00 00:00:00.000 0.000 00:00:00
Hayden Johnson AU21-UCA-205 0 0000-00-00 00:00:00.000 0.000 00:00:00
Hayden Johnson AU21-UCA-233 0 0000-00-00 00:00:00.000 0.000 00:00:00
Hayden Johnson AU21-UCA-250 0 0000-00-00 00:00:00.000 0.000 00:00:00
Peery Loft AU21-UCA-0118 0 0000-00-00 00:00:00.000 0.000 00:00:00
Ross Johnson AU21-UCA-11 0 0000-00-00 00:00:00.000 0.000 00:00:00
Ross Johnson AU21-UCA-17 0 0000-00-00 00:00:00.000 0.000 00:00:00
Ross Johnson AU21-UCA-18 0 0000-00-00 00:00:00.000 0.000 00:00:00
Ross Johnson AU21-UCA-24 0 0000-00-00 00:00:00.000 0.000 00:00:00
Ross Johnson AU21-UCA-27 0 0000-00-00 00:00:00.000 0.000 00:00:00
Ross Johnson AU21-UCA-29 0 0000-00-00 00:00:00.000 0.000 00:00:00
Ross Johnson AU21-UCA-32 0 0000-00-00 00:00:00.000 0.000 00:00:00
Ross Johnson AU21-UCA-34 0 0000-00-00 00:00:00.000 0.000 00:00:00
Ross Johnson AU21-UCA-69 0 0000-00-00 00:00:00.000 0.000 00:00:00
Ross Johnson AU21-UCA-7 0 0000-00-00 00:00:00.000 0.000 00:00:00
Sherwood Loft AU21-UCA-0560 0 0000-00-00 00:00:00.000 0.000 00:00:00
Sherwood Loft AU21-UVI-0605 0 0000-00-00 00:00:00.000 0.000 00:00:00